sensor_id;sensor_type;location;lat;lon;timestamp;pressure;altitude;pressure_sealevel;temperature;humidity
39051;BME280;24805;55.852;37.644;2023-04-10T00:00:21;100279.94;;;11.28;36.88
39051;BME280;24805;55.852;37.644;2023-04-10T00:05:23;100287.44;;;11.33;36.26
39051;BME280;24805;55.852;37.644;2023-04-10T00:10:26;100293.25;;;11.36;36.15
39051;BME280;24805;55.852;37.644;2023-04-10T00:15:31;100285.28;;;11.45;36.49
39051;BME280;24805;55.852;37.644;2023-04-10T00:20:33;100297.09;;;11.50;36.36
39051;BME280;24805;55.852;37.644;2023-04-10T00:25:36;100288.63;;;11.55;36.49
39051;BME280;24805;55.852;37.644;2023-04-10T00:30:38;100290.97;;;11.58;35.88
39051;BME280;24805;55.852;37.644;2023-04-10T00:35:40;100295.44;;;11.57;36.06
39051;BME280;24805;55.852;37.644;2023-04-10T00:40:42;100297.44;;;12.04;34.82
39051;BME280;24805;55.852;37.644;2023-04-10T00:45:44;100306.75;;;12.00;34.26
39051;BME280;24805;55.852;37.644;2023-04-10T00:50:47;100292.44;;;11.52;35.62
39051;BME280;24805;55.852;37.644;2023-04-10T00:55:50;100305.41;;;11.55;36.13
39051;BME280;24805;55.852;37.644;2023-04-10T01:00:52;100298.44;;;11.54;36.59
39051;BME280;24805;55.852;37.644;2023-04-10T01:21:19;100276.63;;;11.43;36.89
39051;BME280;24805;55.852;37.644;2023-04-10T01:26:41;100283.81;;;11.50;37.08
39051;BME280;24805;55.852;37.644;2023-04-10T01:32:01;100273.47;;;11.31;38.42
39051;BME280;24805;55.852;37.644;2023-04-10T01:37:11;100280.44;;;11.24;38.61
39051;BME280;24805;55.852;37.644;2023-04-10T01:42:15;100274.94;;;11.09;38.80
39051;BME280;24805;55.852;37.644;2023-04-10T01:47:19;100296.69;;;11.21;38.74
39051;BME280;24805;55.852;37.644;2023-04-10T01:52:24;100298.34;;;11.22;39.34
39051;BME280;24805;55.852;37.644;2023-04-10T01:57:38;100298.34;;;11.22;39.38
39051;BME280;24805;55.852;37.644;2023-04-10T02:02:41;100284.91;;;11.23;39.42
39051;BME280;24805;55.852;37.644;2023-04-10T02:08:14;100285.47;;;11.51;39.40
39051;BME280;24805;55.852;37.644;2023-04-10T02:13:21;100288.59;;;11.30;39.21
39051;BME280;24805;55.852;37.644;2023-04-10T02:18:25;100288.09;;;11.27;39.21
39051;BME280;24805;55.852;37.644;2023-04-10T02:23:28;100288.91;;;11.27;39.57
39051;BME280;24805;55.852;37.644;2023-04-10T02:28:30;100281.78;;;11.28;39.39
39051;BME280;24805;55.852;37.644;2023-04-10T02:33:32;100288.09;;;11.27;39.80
39051;BME280;24805;55.852;37.644;2023-04-10T02:38:34;100280.28;;;11.25;40.06
39051;BME280;24805;55.852;37.644;2023-04-10T02:43:36;100268.81;;;11.25;40.14
39051;BME280;24805;55.852;37.644;2023-04-10T02:48:39;100257.38;;;11.16;40.13
39051;BME280;24805;55.852;37.644;2023-04-10T02:53:41;100283.94;;;11.32;40.60
39051;BME280;24805;55.852;37.644;2023-04-10T02:58:47;100288.63;;;11.38;40.74
39051;BME280;24805;55.852;37.644;2023-04-10T03:03:50;100287.25;;;11.43;40.19
39051;BME280;24805;55.852;37.644;2023-04-10T03:08:59;100301.91;;;11.47;40.29
39051;BME280;24805;55.852;37.644;2023-04-10T03:14:02;100295.91;;;11.61;39.83
39051;BME280;24805;55.852;37.644;2023-04-10T03:19:04;100295.28;;;11.75;40.05
39051;BME280;24805;55.852;37.644;2023-04-10T03:24:07;100289.31;;;11.81;39.93
39051;BME280;24805;55.852;37.644;2023-04-10T03:29:10;100277.66;;;11.74;40.40
39051;BME280;24805;55.852;37.644;2023-04-10T03:34:12;100297.63;;;11.78;39.92
39051;BME280;24805;55.852;37.644;2023-04-10T03:39:14;100299.94;;;11.73;40.50
39051;BME280;24805;55.852;37.644;2023-04-10T03:44:16;100295.91;;;11.61;40.96
39051;BME280;24805;55.852;37.644;2023-04-10T03:49:19;100299.75;;;11.58;41.36
39051;BME280;24805;55.852;37.644;2023-04-10T03:54:21;100300.59;;;11.59;42.01
39051;BME280;24805;55.852;37.644;2023-04-10T03:59:24;100287.97;;;11.69;41.56
39051;BME280;24805;55.852;37.644;2023-04-10T04:04:42;100301.94;;;11.95;41.39
39051;BME280;24805;55.852;37.644;2023-04-10T04:10:05;100299.56;;;12.25;40.61
39051;BME280;24805;55.852;37.644;2023-04-10T04:15:20;100286.06;;;12.42;39.90
39051;BME280;24805;55.852;37.644;2023-04-10T04:20:42;100301.63;;;12.62;39.80
39051;BME280;24805;55.852;37.644;2023-04-10T04:26:07;100299.47;;;12.65;39.29
39051;BME280;24805;55.852;37.644;2023-04-10T04:31:16;100293.41;;;12.80;39.61
39051;BME280;24805;55.852;37.644;2023-04-10T04:36:36;100301.28;;;13.04;39.22
39051;BME280;24805;55.852;37.644;2023-04-10T04:41:47;100304.16;;;13.33;38.55
39051;BME280;24805;55.852;37.644;2023-04-10T04:47:13;100304.41;;;13.69;38.15
39051;BME280;24805;55.852;37.644;2023-04-10T04:52:44;100278.06;;;13.89;37.87
39051;BME280;24805;55.852;37.644;2023-04-10T04:58:00;100300.09;;;14.21;37.26
39051;BME280;24805;55.852;37.644;2023-04-10T05:03:02;100310.78;;;15.09;36.26
39051;BME280;24805;55.852;37.644;2023-04-10T05:08:22;100296.91;;;14.84;36.41
39051;BME280;24805;55.852;37.644;2023-04-10T05:13:34;100297.97;;;15.40;35.09
39051;BME280;24805;55.852;37.644;2023-04-10T05:18:48;100307.16;;;16.16;34.35
39051;BME280;24805;55.852;37.644;2023-04-10T05:24:09;100308.03;;;17.60;32.22
39051;BME280;24805;55.852;37.644;2023-04-10T05:29:30;100315.94;;;18.14;30.30
39051;BME280;24805;55.852;37.644;2023-04-10T05:34:49;100312.41;;;18.01;30.35
39051;BME280;24805;55.852;37.644;2023-04-10T05:40:23;100314.69;;;18.23;30.08
39051;BME280;24805;55.852;37.644;2023-04-10T05:45:45;100313.44;;;19.17;29.19
39051;BME280;24805;55.852;37.644;2023-04-10T05:51:23;100314.00;;;20.99;26.98
39051;BME280;24805;55.852;37.644;2023-04-10T05:56:44;100309.88;;;23.15;24.37
39051;BME280;24805;55.852;37.644;2023-04-10T06:02:16;100314.94;;;24.91;22.19
39051;BME280;24805;55.852;37.644;2023-04-10T06:07:20;100308.03;;;25.76;20.91
39051;BME280;24805;55.852;37.644;2023-04-10T06:12:22;100308.88;;;25.81;20.32
39051;BME280;24805;55.852;37.644;2023-04-10T06:17:25;100308.50;;;24.75;21.05
39051;BME280;24805;55.852;37.644;2023-04-10T06:22:29;100316.69;;;23.58;22.23
39051;BME280;24805;55.852;37.644;2023-04-10T06:27:33;100316.56;;;23.53;22.46
39051;BME280;24805;55.852;37.644;2023-04-10T06:32:36;100312.50;;;24.51;21.45
39051;BME280;24805;55.852;37.644;2023-04-10T06:37:39;100311.81;;;24.60;20.87
39051;BME280;24805;55.852;37.644;2023-04-10T06:42:41;100313.69;;;24.77;20.67
39051;BME280;24805;55.852;37.644;2023-04-10T06:47:49;100310.44;;;24.58;20.45
39051;BME280;24805;55.852;37.644;2023-04-10T06:52:51;100317.84;;;24.84;20.34
39051;BME280;24805;55.852;37.644;2023-04-10T06:57:56;100314.03;;;25.78;20.04
39051;BME280;24805;55.852;37.644;2023-04-10T07:02:58;100319.56;;;27.19;18.81
39051;BME280;24805;55.852;37.644;2023-04-10T07:08:01;100315.91;;;28.06;17.31
39051;BME280;24805;55.852;37.644;2023-04-10T07:13:03;100322.53;;;26.55;17.85
39051;BME280;24805;55.852;37.644;2023-04-10T07:18:05;100323.28;;;24.29;20.24
39051;BME280;24805;55.852;37.644;2023-04-10T07:23:07;100322.75;;;22.96;21.61
39051;BME280;24805;55.852;37.644;2023-04-10T07:28:09;100325.78;;;21.23;23.18
39051;BME280;24805;55.852;37.644;2023-04-10T07:33:12;100317.56;;;20.39;24.98
39051;BME280;24805;55.852;37.644;2023-04-10T07:38:15;100317.81;;;19.49;26.11
39051;BME280;24805;55.852;37.644;2023-04-10T07:43:18;100315.41;;;18.97;26.81
39051;BME280;24805;55.852;37.644;2023-04-10T07:48:20;100321.88;;;19.20;27.19
39051;BME280;24805;55.852;37.644;2023-04-10T07:53:22;100321.75;;;20.10;26.05
39051;BME280;24805;55.852;37.644;2023-04-10T07:58:24;100313.94;;;20.88;24.73
39051;BME280;24805;55.852;37.644;2023-04-10T08:03:26;100313.00;;;21.60;23.98
39051;BME280;24805;55.852;37.644;2023-04-10T08:08:29;100317.50;;;21.66;23.72
39051;BME280;24805;55.852;37.644;2023-04-10T08:13:31;100306.66;;;21.25;23.69
39051;BME280;24805;55.852;37.644;2023-04-10T08:18:33;100309.59;;;21.23;23.99
39051;BME280;24805;55.852;37.644;2023-04-10T08:23:36;100303.81;;;21.20;23.47
39051;BME280;24805;55.852;37.644;2023-04-10T08:28:38;100315.75;;;20.76;24.38
39051;BME280;24805;55.852;37.644;2023-04-10T08:33:40;100305.63;;;20.71;24.22
39051;BME280;24805;55.852;37.644;2023-04-10T08:38:43;100310.34;;;20.94;24.38
39051;BME280;24805;55.852;37.644;2023-04-10T08:43:45;100298.28;;;21.15;23.89
39051;BME280;24805;55.852;37.644;2023-04-10T08:49:04;100302.19;;;21.60;23.96
39051;BME280;24805;55.852;37.644;2023-04-10T08:54:09;100297.53;;;21.56;23.73
39051;BME280;24805;55.852;37.644;2023-04-10T08:59:12;100289.66;;;21.54;23.78
39051;BME280;24805;55.852;37.644;2023-04-10T09:04:14;100284.63;;;21.28;23.45
39051;BME280;24805;55.852;37.644;2023-04-10T09:09:19;100285.94;;;20.27;24.03
39051;BME280;24805;55.852;37.644;2023-04-10T09:14:25;100299.41;;;19.53;25.28
39051;BME280;24805;55.852;37.644;2023-04-10T09:19:29;100294.34;;;18.80;26.15
39051;BME280;24805;55.852;37.644;2023-04-10T09:24:35;100294.53;;;18.79;26.46
39051;BME280;24805;55.852;37.644;2023-04-10T09:29:46;100297.88;;;18.74;26.44
39051;BME280;24805;55.852;37.644;2023-04-10T09:34:52;100291.50;;;18.49;26.34
39051;BME280;24805;55.852;37.644;2023-04-10T09:39:55;100292.13;;;18.51;26.30
39051;BME280;24805;55.852;37.644;2023-04-10T09:44:57;100289.44;;;18.64;26.19
39051;BME280;24805;55.852;37.644;2023-04-10T09:50:00;100282.81;;;18.73;25.99
39051;BME280;24805;55.852;37.644;2023-04-10T09:55:04;100283.63;;;19.18;25.81
39051;BME280;24805;55.852;37.644;2023-04-10T10:00:07;100265.03;;;19.48;25.33
39051;BME280;24805;55.852;37.644;2023-04-10T10:05:10;100273.16;;;19.73;25.09
39051;BME280;24805;55.852;37.644;2023-04-10T10:10:13;100274.13;;;19.16;25.43
39051;BME280;24805;55.852;37.644;2023-04-10T10:15:27;100274.03;;;18.91;26.38
39051;BME280;24805;55.852;37.644;2023-04-10T10:20:32;100284.50;;;19.12;26.02
39051;BME280;24805;55.852;37.644;2023-04-10T10:25:38;100264.63;;;19.51;25.73
39051;BME280;24805;55.852;37.644;2023-04-10T10:30:41;100273.34;;;20.46;24.89
39051;BME280;24805;55.852;37.644;2023-04-10T10:35:43;100257.53;;;20.86;26.16
39051;BME280;24805;55.852;37.644;2023-04-10T10:46:13;100257.56;;;25.04;20.43
39051;BME280;24805;55.852;37.644;2023-04-10T10:51:17;100252.31;;;25.73;19.15
39051;BME280;24805;55.852;37.644;2023-04-10T11:01:24;100259.44;;;27.46;17.11
39051;BME280;24805;55.852;37.644;2023-04-10T11:06:48;100251.00;;;29.47;16.55
39051;BME280;24805;55.852;37.644;2023-04-10T11:11:56;100272.63;;;30.12;15.85
39051;BME280;24805;55.852;37.644;2023-04-10T11:16:59;100272.22;;;27.40;16.95
39051;BME280;24805;55.852;37.644;2023-04-10T11:22:06;100270.78;;;25.22;19.35
39051;BME280;24805;55.852;37.644;2023-04-10T11:27:42;100270.59;;;23.13;21.55
39051;BME280;24805;55.852;37.644;2023-04-10T11:32:49;100273.00;;;21.09;24.29
39051;BME280;24805;55.852;37.644;2023-04-10T11:37:51;100264.66;;;20.19;26.23
39051;BME280;24805;55.852;37.644;2023-04-10T11:43:11;100267.22;;;19.89;27.30
39051;BME280;24805;55.852;37.644;2023-04-10T11:48:14;100269.00;;;19.01;29.41
39051;BME280;24805;55.852;37.644;2023-04-10T11:53:19;100269.81;;;18.50;31.11
39051;BME280;24805;55.852;37.644;2023-04-10T11:58:26;100265.38;;;17.98;32.31
39051;BME280;24805;55.852;37.644;2023-04-10T12:03:37;100270.31;;;17.88;32.51
39051;BME280;24805;55.852;37.644;2023-04-10T12:08:44;100273.94;;;17.41;32.95
39051;BME280;24805;55.852;37.644;2023-04-10T12:13:52;100272.00;;;17.08;33.86
39051;BME280;24805;55.852;37.644;2023-04-10T12:18:55;100266.53;;;16.82;34.30
39051;BME280;24805;55.852;37.644;2023-04-10T12:23:58;100259.59;;;16.60;35.66
39051;BME280;24805;55.852;37.644;2023-04-10T12:29:00;100265.59;;;16.62;36.67
39051;BME280;24805;55.852;37.644;2023-04-10T12:34:02;100264.00;;;16.67;36.33
39051;BME280;24805;55.852;37.644;2023-04-10T12:39:21;100259.19;;;16.97;34.88
39051;BME280;24805;55.852;37.644;2023-04-10T12:44:23;100260.34;;;16.81;35.20
39051;BME280;24805;55.852;37.644;2023-04-10T12:49:25;100253.16;;;16.82;35.35
39051;BME280;24805;55.852;37.644;2023-04-10T12:54:32;100252.91;;;17.38;34.82
39051;BME280;24805;55.852;37.644;2023-04-10T12:59:34;100241.19;;;18.18;33.35
39051;BME280;24805;55.852;37.644;2023-04-10T13:04:36;100242.66;;;19.54;31.92
39051;BME280;24805;55.852;37.644;2023-04-10T13:09:39;100231.25;;;20.82;29.31
39051;BME280;24805;55.852;37.644;2023-04-10T13:14:41;100239.41;;;21.23;27.89
39051;BME280;24805;55.852;37.644;2023-04-10T13:19:43;100241.66;;;20.60;28.29
39051;BME280;24805;55.852;37.644;2023-04-10T13:24:45;100229.06;;;19.74;29.33
39051;BME280;24805;55.852;37.644;2023-04-10T13:29:47;100230.38;;;18.96;30.35
39051;BME280;24805;55.852;37.644;2023-04-10T13:34:49;100228.88;;;18.48;30.87
39051;BME280;24805;55.852;37.644;2023-04-10T13:39:51;100224.84;;;18.00;32.05
39051;BME280;24805;55.852;37.644;2023-04-10T13:44:54;100231.47;;;17.38;32.56
39051;BME280;24805;55.852;37.644;2023-04-10T13:49:56;100224.59;;;17.09;33.39
39051;BME280;24805;55.852;37.644;2023-04-10T13:54:58;100233.53;;;17.55;32.84
39051;BME280;24805;55.852;37.644;2023-04-10T14:00:00;100233.31;;;17.44;32.82
39051;BME280;24805;55.852;37.644;2023-04-10T14:05:13;100232.63;;;17.09;33.63
39051;BME280;24805;55.852;37.644;2023-04-10T14:10:15;100220.78;;;16.83;34.49
39051;BME280;24805;55.852;37.644;2023-04-10T14:15:17;100221.53;;;16.64;35.01
39051;BME280;24805;55.852;37.644;2023-04-10T14:20:19;100226.03;;;16.23;35.76
39051;BME280;24805;55.852;37.644;2023-04-10T14:25:22;100219.47;;;15.91;36.11
39051;BME280;24805;55.852;37.644;2023-04-10T14:30:24;100213.69;;;15.66;36.11
39051;BME280;24805;55.852;37.644;2023-04-10T14:35:31;100210.00;;;15.45;36.42
39051;BME280;24805;55.852;37.644;2023-04-10T14:40:33;100200.53;;;15.92;32.94
39051;BME280;24805;55.852;37.644;2023-04-10T14:45:35;100200.84;;;15.33;36.26
39051;BME280;24805;55.852;37.644;2023-04-10T14:50:37;100195.03;;;15.72;33.16
39051;BME280;24805;55.852;37.644;2023-04-10T14:55:39;100189.53;;;15.10;37.15
39051;BME280;24805;55.852;37.644;2023-04-10T15:00:41;100185.91;;;14.96;37.36
39051;BME280;24805;55.852;37.644;2023-04-10T15:05:44;100188.69;;;14.88;37.88
39051;BME280;24805;55.852;37.644;2023-04-10T15:10:46;100183.97;;;14.90;37.58
39051;BME280;24805;55.852;37.644;2023-04-10T15:15:51;100178.19;;;14.87;37.56
39051;BME280;24805;55.852;37.644;2023-04-10T15:20:53;100180.59;;;14.81;37.73
39051;BME280;24805;55.852;37.644;2023-04-10T15:25:57;100173.63;;;14.66;37.08
39051;BME280;24805;55.852;37.644;2023-04-10T15:30:59;100151.75;;;14.41;38.15
39051;BME280;24805;55.852;37.644;2023-04-10T15:36:01;100164.94;;;14.42;38.30
39051;BME280;24805;55.852;37.644;2023-04-10T15:41:08;100174.78;;;14.42;37.37
39051;BME280;24805;55.852;37.644;2023-04-10T15:46:11;100165.66;;;14.22;37.99
39051;BME280;24805;55.852;37.644;2023-04-10T15:51:13;100171.28;;;14.12;38.53
39051;BME280;24805;55.852;37.644;2023-04-10T15:56:15;100163.19;;;14.05;38.96
39051;BME280;24805;55.852;37.644;2023-04-10T16:01:17;100165.56;;;14.44;35.14
39051;BME280;24805;55.852;37.644;2023-04-10T16:06:19;100131.19;;;13.76;38.98
39051;BME280;24805;55.852;37.644;2023-04-10T16:11:21;100160.34;;;13.77;39.16
39051;BME280;24805;55.852;37.644;2023-04-10T16:16:23;100153.97;;;13.64;39.71
39051;BME280;24805;55.852;37.644;2023-04-10T16:21:26;100155.72;;;13.57;39.96
39051;BME280;24805;55.852;37.644;2023-04-10T16:26:28;100157.50;;;13.41;40.80
39051;BME280;24805;55.852;37.644;2023-04-10T16:31:30;100164.00;;;13.76;37.32
39051;BME280;24805;55.852;37.644;2023-04-10T16:36:32;100133.47;;;13.04;40.69
39051;BME280;24805;55.852;37.644;2023-04-10T16:41:34;100156.50;;;13.42;37.94
39051;BME280;24805;55.852;37.644;2023-04-10T16:46:36;100154.78;;;12.81;42.74
39051;BME280;24805;55.852;37.644;2023-04-10T16:51:39;100157.88;;;12.62;43.64
39051;BME280;24805;55.852;37.644;2023-04-10T16:56:41;100152.97;;;12.51;44.04
39051;BME280;24805;55.852;37.644;2023-04-10T17:01:43;100160.88;;;12.36;44.68
39051;BME280;24805;55.852;37.644;2023-04-10T17:06:45;100159.06;;;12.28;44.51
39051;BME280;24805;55.852;37.644;2023-04-10T17:11:47;100150.63;;;12.17;44.88
39051;BME280;24805;55.852;37.644;2023-04-10T17:16:49;100156.50;;;12.04;45.05
39051;BME280;24805;55.852;37.644;2023-04-10T17:21:52;100153.69;;;11.97;45.67
39051;BME280;24805;55.852;37.644;2023-04-10T17:26:55;100152.72;;;11.98;45.61
39051;BME280;24805;55.852;37.644;2023-04-10T17:31:58;100144.72;;;11.98;45.53
39051;BME280;24805;55.852;37.644;2023-04-10T17:37:00;100122.16;;;11.86;45.06
39051;BME280;24805;55.852;37.644;2023-04-10T17:42:02;100133.94;;;11.92;44.93
39051;BME280;24805;55.852;37.644;2023-04-10T17:47:04;100142.56;;;11.94;45.61
39051;BME280;24805;55.852;37.644;2023-04-10T17:52:06;100150.56;;;12.33;42.50
39051;BME280;24805;55.852;37.644;2023-04-10T17:57:08;100146.41;;;11.83;45.32
39051;BME280;24805;55.852;37.644;2023-04-10T18:02:10;100147.66;;;12.12;42.77
39051;BME280;24805;55.852;37.644;2023-04-10T18:07:12;100134.34;;;11.56;46.32
39051;BME280;24805;55.852;37.644;2023-04-10T18:12:14;100132.34;;;11.42;47.68
39051;BME280;24805;55.852;37.644;2023-04-10T18:17:16;100129.50;;;11.76;43.77
39051;BME280;24805;55.852;37.644;2023-04-10T18:22:18;100136.03;;;11.33;47.07
39051;BME280;24805;55.852;37.644;2023-04-10T18:27:20;100133.53;;;11.23;47.92
39051;BME280;24805;55.852;37.644;2023-04-10T18:32:23;100135.03;;;11.18;47.38
39051;BME280;24805;55.852;37.644;2023-04-10T18:37:25;100132.19;;;11.19;47.68
39051;BME280;24805;55.852;37.644;2023-04-10T18:42:27;100132.81;;;11.62;44.10
39051;BME280;24805;55.852;37.644;2023-04-10T18:47:29;100127.97;;;11.65;42.88
39051;BME280;24805;55.852;37.644;2023-04-10T18:52:32;100125.56;;;11.31;47.17
39051;BME280;24805;55.852;37.644;2023-04-10T18:57:34;100125.81;;;11.69;42.66
39051;BME280;24805;55.852;37.644;2023-04-10T19:02:36;100126.88;;;11.35;46.49
39051;BME280;24805;55.852;37.644;2023-04-10T19:07:39;100124.56;;;11.32;47.27
39051;BME280;24805;55.852;37.644;2023-04-10T19:12:53;100112.28;;;11.31;47.48
39051;BME280;24805;55.852;37.644;2023-04-10T19:17:57;100112.28;;;11.31;47.23
39051;BME280;24805;55.852;37.644;2023-04-10T19:23:04;100111.44;;;11.31;46.90
39051;BME280;24805;55.852;37.644;2023-04-10T19:28:06;100110.28;;;11.33;47.54
39051;BME280;24805;55.852;37.644;2023-04-10T19:33:34;100116.72;;;11.55;47.33
39051;BME280;24805;55.852;37.644;2023-04-10T19:38:36;100119.22;;;11.40;47.53
39051;BME280;24805;55.852;37.644;2023-04-10T19:43:38;100116.22;;;11.52;47.16
39051;BME280;24805;55.852;37.644;2023-04-10T19:48:41;100105.72;;;11.66;47.19
39051;BME280;24805;55.852;37.644;2023-04-10T19:53:43;100101.94;;;11.77;45.75
39051;BME280;24805;55.852;37.644;2023-04-10T19:58:45;100110.34;;;11.89;45.92
39051;BME280;24805;55.852;37.644;2023-04-10T20:03:47;100098.28;;;12.40;43.43
39051;BME280;24805;55.852;37.644;2023-04-10T20:08:50;100097.50;;;12.00;45.79
39051;BME280;24805;55.852;37.644;2023-04-10T20:13:52;100099.38;;;11.92;46.40
39051;BME280;24805;55.852;37.644;2023-04-10T20:18:54;100090.06;;;11.88;47.22
39051;BME280;24805;55.852;37.644;2023-04-10T20:23:56;100093.72;;;11.87;46.82
39051;BME280;24805;55.852;37.644;2023-04-10T20:28:58;100098.50;;;12.38;44.66
39051;BME280;24805;55.852;37.644;2023-04-10T20:34:02;100104.00;;;11.98;47.12
39051;BME280;24805;55.852;37.644;2023-04-10T20:39:04;100101.19;;;11.91;46.71
39051;BME280;24805;55.852;37.644;2023-04-10T20:44:06;100105.38;;;11.86;47.33
39051;BME280;24805;55.852;37.644;2023-04-10T20:49:09;100097.44;;;11.78;46.76
39051;BME280;24805;55.852;37.644;2023-04-10T20:54:13;100095.41;;;11.71;47.64
39051;BME280;24805;55.852;37.644;2023-04-10T20:59:16;100104.91;;;11.66;46.73
39051;BME280;24805;55.852;37.644;2023-04-10T21:04:18;100100.44;;;11.58;47.15
39051;BME280;24805;55.852;37.644;2023-04-10T21:09:21;100095.63;;;11.54;47.54
39051;BME280;24805;55.852;37.644;2023-04-10T21:14:23;100101.63;;;11.56;47.90
39051;BME280;24805;55.852;37.644;2023-04-10T21:19:26;100089.66;;;11.52;47.94
39051;BME280;24805;55.852;37.644;2023-04-10T21:24:28;100098.69;;;11.98;44.63
39051;BME280;24805;55.852;37.644;2023-04-10T21:29:30;100096.63;;;11.53;47.83
39051;BME280;24805;55.852;37.644;2023-04-10T21:34:32;100094.31;;;11.42;47.98
39051;BME280;24805;55.852;37.644;2023-04-10T21:39:38;100100.47;;;11.50;47.96
39051;BME280;24805;55.852;37.644;2023-04-10T21:44:41;100089.16;;;11.40;47.50
39051;BME280;24805;55.852;37.644;2023-04-10T21:49:43;100092.03;;;11.38;47.35
39051;BME280;24805;55.852;37.644;2023-04-10T21:54:45;100090.16;;;11.39;47.56
39051;BME280;24805;55.852;37.644;2023-04-10T21:59:47;100084.69;;;11.40;47.78
39051;BME280;24805;55.852;37.644;2023-04-10T22:04:49;100086.91;;;11.92;44.41
39051;BME280;24805;55.852;37.644;2023-04-10T22:09:55;100082.69;;;11.51;47.95
39051;BME280;24805;55.852;37.644;2023-04-10T22:14:57;100079.03;;;11.52;47.82
39051;BME280;24805;55.852;37.644;2023-04-10T22:20:00;100080.53;;;11.54;48.33
39051;BME280;24805;55.852;37.644;2023-04-10T22:25:04;100062.44;;;11.50;48.08
39051;BME280;24805;55.852;37.644;2023-04-10T22:30:07;100076.03;;;11.55;48.00
39051;BME280;24805;55.852;37.644;2023-04-10T22:35:10;100078.16;;;11.59;48.41
39051;BME280;24805;55.852;37.644;2023-04-10T22:40:14;100075.50;;;11.59;48.26
39051;BME280;24805;55.852;37.644;2023-04-10T22:45:16;100069.38;;;11.59;48.88
39051;BME280;24805;55.852;37.644;2023-04-10T22:50:18;100064.06;;;11.59;48.35
39051;BME280;24805;55.852;37.644;2023-04-10T22:55:21;100069.84;;;11.62;48.53
39051;BME280;24805;55.852;37.644;2023-04-10T23:00:24;100062.88;;;11.61;48.79
39051;BME280;24805;55.852;37.644;2023-04-10T23:05:26;100066.53;;;11.60;48.40
39051;BME280;24805;55.852;37.644;2023-04-10T23:10:28;100070.03;;;11.61;48.68
39051;BME280;24805;55.852;37.644;2023-04-10T23:15:30;100067.38;;;11.61;48.69
39051;BME280;24805;55.852;37.644;2023-04-10T23:20:34;100060.53;;;11.66;48.86
39051;BME280;24805;55.852;37.644;2023-04-10T23:25:36;100062.53;;;11.64;48.52
39051;BME280;24805;55.852;37.644;2023-04-10T23:30:39;100066.03;;;11.65;48.61
39051;BME280;24805;55.852;37.644;2023-04-10T23:35:42;100060.06;;;11.63;48.90
39051;BME280;24805;55.852;37.644;2023-04-10T23:40:44;100053.78;;;12.03;46.69
39051;BME280;24805;55.852;37.644;2023-04-10T23:45:46;100057.78;;;11.44;48.77
39051;BME280;24805;55.852;37.644;2023-04-10T23:50:49;100055.16;;;11.27;49.46
39051;BME280;24805;55.852;37.644;2023-04-10T23:55:51;100060.47;;;11.27;49.39
